Time;durP1;ratioP1;P1;durP2;ratioP2;P2;SDS_P1;SDS_P2;PMS_P1;PMS_P2;Temp;Humidity;BMP_temperature;BMP_pressure;BME280_temperature;BME280_humidity;BME280_pressure;Samples;Min_cycle;Max_cycle;Signal;HPM_P1;HPM_P2
2022/01/12 00:01:38;;;;;;;18.77;10.67;;;6.40;75.40;;;;;;5053983;28;20037;-60
2022/01/12 00:04:04;;;;;;;20.47;10.90;;;6.40;75.50;;;;;;5053663;28;20025;-61
2022/01/12 00:06:30;;;;;;;21.70;11.90;;;6.40;75.60;;;;;;5053332;28;20406;-60
2022/01/12 00:08:56;;;;;;;16.27;10.33;;;6.40;75.60;;;;;;5053342;28;20041;-61
2022/01/12 00:11:22;;;;;;;19.27;10.23;;;6.40;75.60;;;;;;5053675;28;20060;-61
2022/01/12 00:13:51;;;;;;;21.13;11.23;;;6.40;75.70;;;;;;5053659;28;20021;-60
2022/01/12 00:16:18;;;;;;;20.00;11.37;;;6.40;75.80;;;;;;5053477;28;20171;-60
2022/01/12 00:18:45;;;;;;;18.77;10.90;;;6.40;75.90;;;;;;5080692;28;20040;-61
2022/01/12 00:21:12;;;;;;;22.83;12.03;;;6.40;76.00;;;;;;5095477;28;20173;-60
2022/01/12 00:23:39;;;;;;;18.43;10.47;;;6.30;76.10;;;;;;5095135;28;20035;-61
2022/01/12 00:26:08;;;;;;;22.80;12.60;;;6.30;76.30;;;;;;5095023;28;20437;-60
2022/01/12 00:34:17;;;;;;;22.10;13.07;;;6.20;76.90;;;;;;5075554;28;20024;-60
2022/01/12 00:36:44;;;;;;;19.03;11.87;;;6.20;77.10;;;;;;5093986;28;20020;-60
2022/01/12 00:39:10;;;;;;;22.57;12.27;;;6.20;77.30;;;;;;5094484;28;20097;-60
2022/01/12 00:41:40;;;;;;;21.67;12.70;;;6.20;77.40;;;;;;5094213;28;20387;-60
2022/01/12 00:44:09;;;;;;;21.37;11.07;;;6.20;77.60;;;;;;5094964;28;20460;-60
2022/01/12 00:46:36;;;;;;;21.13;12.83;;;6.20;77.80;;;;;;5095027;28;20032;-60
2022/01/12 00:49:02;;;;;;;20.90;12.93;;;6.20;77.80;;;;;;5084937;28;20040;-60
2022/01/12 00:51:34;;;;;;;23.63;12.57;;;6.20;78.00;;;;;;5095153;28;20028;-60
2022/01/12 00:54:01;;;;;;;24.83;13.60;;;6.20;78.10;;;;;;5093494;28;20529;-60
2022/01/12 00:56:27;;;;;;;20.87;12.33;;;6.20;78.30;;;;;;5093915;28;20028;-60
2022/01/12 00:58:53;;;;;;;20.03;12.77;;;6.20;78.40;;;;;;5109479;28;20016;-60
2022/01/12 01:01:20;;;;;;;20.67;12.03;;;6.10;78.50;;;;;;5110758;28;20444;-60
2022/01/12 01:03:47;;;;;;;20.63;11.97;;;6.20;78.60;;;;;;5094141;28;20028;-60
2022/01/12 01:06:15;;;;;;;23.53;12.87;;;6.10;78.70;;;;;;5093830;28;20020;-60
2022/01/12 01:08:41;;;;;;;21.93;13.07;;;6.20;78.80;;;;;;5094854;28;20034;-60
2022/01/12 01:11:07;;;;;;;21.03;12.93;;;6.20;78.80;;;;;;5094670;28;20043;-60
2022/01/12 01:13:36;;;;;;;22.20;12.20;;;6.20;78.90;;;;;;5093124;28;20020;-60
2022/01/12 01:16:11;;;;;;;20.50;12.97;;;6.20;78.90;;;;;;5093609;28;20443;-60
2022/01/12 01:26:55;;;;;;;22.50;12.53;;;6.10;79.10;;;;;;5094619;28;20073;-60
2022/01/12 01:29:21;;;;;;;21.87;14.40;;;6.10;79.20;;;;;;5093407;28;20132;-60
2022/01/12 01:31:47;;;;;;;22.93;14.40;;;6.10;79.30;;;;;;5094415;28;20535;-60
2022/01/12 01:34:15;;;;;;;22.50;14.23;;;6.10;79.40;;;;;;5075208;28;20028;-60
2022/01/12 01:36:46;;;;;;;24.93;14.20;;;6.10;79.40;;;;;;5077014;28;20448;-60
2022/01/12 01:39:15;;;;;;;19.30;11.73;;;6.10;79.50;;;;;;5093198;28;20180;-60
2022/01/12 01:41:45;;;;;;;25.80;16.03;;;6.10;79.50;;;;;;5094661;28;20036;-60
2022/01/12 01:54:55;;;;;;;27.97;16.03;;;6.10;79.50;;;;;;5092727;28;20032;-60
2022/01/12 01:57:24;;;;;;;22.50;14.07;;;6.10;79.70;;;;;;5092851;28;20028;-60
2022/01/12 01:59:50;;;;;;;25.93;15.33;;;6.10;79.70;;;;;;5095903;28;20020;-60
2022/01/12 02:02:16;;;;;;;21.83;13.80;;;6.10;79.80;;;;;;5092964;28;20353;-60
2022/01/12 02:04:41;;;;;;;25.27;15.40;;;6.10;79.90;;;;;;5094732;28;20039;-60
2022/01/12 02:07:07;;;;;;;24.30;16.10;;;6.10;79.90;;;;;;5097438;28;20048;-60
2022/01/12 02:09:34;;;;;;;24.13;15.67;;;6.10;79.90;;;;;;5079636;28;20096;-60
2022/01/12 02:12:29;;;;;;;25.20;16.00;;;6.10;80.00;;;;;;5096744;28;20031;-60
2022/01/12 02:14:57;;;;;;;27.23;16.23;;;6.10;80.00;;;;;;5096966;28;20115;-60
2022/01/12 02:17:30;;;;;;;26.73;16.30;;;6.10;80.00;;;;;;5097192;28;20028;-60
2022/01/12 02:36:33;;;;;;;26.30;16.53;;;6.10;80.20;;;;;;5078088;28;20352;-61
2022/01/12 02:41:43;;;;;;;28.27;16.57;;;6.10;80.20;;;;;;5097119;28;20059;-60
2022/01/12 02:54:49;;;;;;;26.70;17.80;;;6.10;80.30;;;;;;5095919;28;20039;-63
2022/01/12 02:57:15;;;;;;;29.73;17.97;;;6.10;80.30;;;;;;5097034;28;20111;-60
2022/01/12 03:00:00;;;;;;;27.10;17.43;;;6.10;80.40;;;;;;5096860;28;20028;-60
2022/01/12 03:02:51;;;;;;;31.93;17.73;;;6.10;80.40;;;;;;5095734;28;20020;-60
2022/01/12 03:07:52;;;;;;;28.50;17.03;;;6.10;80.40;;;;;;5097241;28;20028;-60
2022/01/12 03:10:18;;;;;;;30.33;18.10;;;6.10;80.40;;;;;;5095520;28;20444;-60
2022/01/12 03:12:45;;;;;;;31.93;19.13;;;6.10;80.40;;;;;;5095569;28;20031;-60
2022/01/12 03:15:15;;;;;;;31.33;19.43;;;6.10;80.60;;;;;;5079170;28;20479;-60
2022/01/12 03:17:40;;;;;;;31.97;18.60;;;6.10;80.60;;;;;;5079563;28;20059;-60
2022/01/12 03:20:07;;;;;;;31.27;18.60;;;6.20;80.70;;;;;;5095200;28;20096;-60
2022/01/12 03:22:34;;;;;;;33.43;20.50;;;6.20;80.70;;;;;;5108666;28;20020;-60
2022/01/12 03:24:59;;;;;;;31.10;17.63;;;6.10;80.60;;;;;;5095157;28;20036;-60
2022/01/12 03:27:26;;;;;;;31.87;19.83;;;6.10;80.70;;;;;;5095028;28;20032;-60
2022/01/12 03:29:56;;;;;;;31.90;18.47;;;6.10;80.70;;;;;;5095438;28;20410;-60
2022/01/12 03:32:34;;;;;;;35.63;19.43;;;6.10;80.70;;;;;;5095372;28;20032;-60
2022/01/12 03:35:08;;;;;;;36.70;19.80;;;6.20;80.80;;;;;;5095076;28;20081;-60
2022/01/12 03:37:52;;;;;;;32.97;19.10;;;6.10;80.70;;;;;;5095678;28;20047;-60
2022/01/12 03:40:18;;;;;;;33.23;19.00;;;6.20;80.90;;;;;;5095835;28;20475;-60
2022/01/12 03:42:44;;;;;;;33.47;20.17;;;6.10;80.90;;;;;;5094896;28;20032;-60
2022/01/12 03:45:10;;;;;;;31.70;18.63;;;6.20;81.00;;;;;;5076292;28;20031;-60
2022/01/12 03:47:35;;;;;;;32.17;19.70;;;6.10;80.90;;;;;;5094759;28;20433;-60
2022/01/12 03:50:01;;;;;;;33.33;20.57;;;6.20;81.00;;;;;;5108162;28;20032;-60
2022/01/12 03:52:27;;;;;;;31.93;19.33;;;6.20;81.00;;;;;;5094891;28;20024;-60
2022/01/12 03:54:53;;;;;;;31.63;20.47;;;6.10;81.00;;;;;;5096005;28;20081;-60
2022/01/12 03:57:18;;;;;;;32.33;20.03;;;6.10;81.10;;;;;;5094977;28;20032;-61
2022/01/12 03:59:44;;;;;;;31.67;19.47;;;6.10;81.10;;;;;;5095299;28;20028;-60
2022/01/12 04:02:09;;;;;;;31.53;18.60;;;6.10;81.10;;;;;;5077584;28;20126;-60
2022/01/12 04:04:52;;;;;;;31.77;19.40;;;6.10;81.20;;;;;;5095027;28;20028;-60
2022/01/12 04:10:03;;;;;;;27.33;16.37;;;6.10;81.20;;;;;;5094450;28;20464;-60
2022/01/12 04:12:29;;;;;;;32.17;19.97;;;6.10;81.30;;;;;;5093816;28;20093;-60
2022/01/12 04:14:55;;;;;;;30.10;19.90;;;6.10;81.30;;;;;;5095355;28;20027;-60
2022/01/12 04:17:20;;;;;;;30.03;19.20;;;6.10;81.30;;;;;;5094082;28;20032;-60
2022/01/12 04:19:47;;;;;;;30.87;18.90;;;6.10;81.30;;;;;;5095088;28;20081;-60
2022/01/12 04:25:04;;;;;;;30.48;17.23;;;6.10;81.30;;;;;;5063750;28;20039;-60
2022/01/12 04:27:31;;;;;;;29.90;18.40;;;6.10;81.30;;;;;;5093606;28;20416;-60
2022/01/12 04:29:57;;;;;;;30.80;19.77;;;6.10;81.30;;;;;;5094215;28;20028;-60
2022/01/12 04:32:24;;;;;;;29.63;18.77;;;6.10;81.30;;;;;;5093484;28;20417;-61
2022/01/12 04:34:50;;;;;;;28.37;16.63;;;6.10;81.40;;;;;;5093692;28;20024;-60
2022/01/12 04:37:16;;;;;;;29.67;17.73;;;6.10;81.40;;;;;;5093728;28;20467;-60
2022/01/12 04:39:42;;;;;;;34.50;19.73;;;6.10;81.40;;;;;;5093986;28;20024;-60
2022/01/12 04:42:08;;;;;;;30.33;19.03;;;6.10;81.40;;;;;;5094693;28;20088;-60
2022/01/12 04:44:39;;;;;;;30.70;19.77;;;6.10;81.40;;;;;;5094740;28;20020;-60
2022/01/12 04:47:14;;;;;;;30.23;19.73;;;6.10;81.50;;;;;;5093296;28;20115;-60
2022/01/12 04:49:47;;;;;;;30.70;20.17;;;6.10;81.50;;;;;;5094885;28;20103;-60
2022/01/12 04:52:15;;;;;;;30.97;19.77;;;6.10;81.50;;;;;;5093168;28;20111;-60
2022/01/12 04:54:41;;;;;;;36.13;20.07;;;6.10;81.50;;;;;;5093739;28;20023;-60
2022/01/12 04:57:07;;;;;;;31.47;19.37;;;6.10;81.50;;;;;;5076605;28;20020;-60
2022/01/12 04:59:35;;;;;;;30.30;19.90;;;6.10;81.50;;;;;;5093399;28;20043;-60
2022/01/12 05:06:19;;;;;;;31.03;19.20;;;6.10;81.60;;;;;;5093453;28;20128;-60
2022/01/12 05:07:46;;;;;;;29.60;18.73;;;6.10;81.60;;;;;;4996067;28;20125;-60
2022/01/12 05:12:54;;;;;;;31.97;18.63;;;6.10;81.60;;;;;;4995287;28;20048;-60
2022/01/12 05:15:29;;;;;;;32.73;19.00;;;6.10;81.60;;;;;;4994538;28;20040;-60
2022/01/12 05:17:55;;;;;;;31.53;19.67;;;6.10;81.70;;;;;;5006230;28;20030;-60
2022/01/12 05:20:22;;;;;;;31.87;20.10;;;6.10;81.70;;;;;;4995044;28;20121;-60
2022/01/12 05:22:48;;;;;;;29.27;19.47;;;6.10;81.70;;;;;;5010896;28;20038;-60
2022/01/12 05:25:17;;;;;;;28.20;18.40;;;6.10;81.80;;;;;;4994709;28;20536;-60
2022/01/12 05:27:43;;;;;;;31.57;18.67;;;6.10;81.80;;;;;;5010711;28;20038;-60
2022/01/12 05:30:10;;;;;;;31.57;19.17;;;6.10;81.80;;;;;;5011198;28;20356;-61
2022/01/12 05:32:36;;;;;;;30.97;19.43;;;6.10;81.80;;;;;;5010839;28;20050;-60
2022/01/12 05:35:04;;;;;;;30.33;19.63;;;6.10;81.80;;;;;;5010776;28;20470;-60
2022/01/12 05:37:30;;;;;;;31.73;18.77;;;6.10;81.80;;;;;;4988790;28;20125;-61
2022/01/12 05:39:56;;;;;;;28.63;19.70;;;6.10;81.80;;;;;;4982315;28;20116;-60
2022/01/12 05:42:23;;;;;;;30.97;18.90;;;6.20;81.90;;;;;;4999215;28;20033;-60
2022/01/12 05:44:48;;;;;;;31.47;20.60;;;6.20;81.90;;;;;;5056375;28;20094;-60
2022/01/12 05:47:31;;;;;;;32.27;19.50;;;6.20;81.90;;;;;;5079437;28;20032;-59
2022/01/12 05:49:57;;;;;;;30.50;20.20;;;6.20;81.90;;;;;;5096387;28;20024;-60
2022/01/12 05:52:23;;;;;;;31.60;20.40;;;6.20;81.90;;;;;;5095701;28;20445;-60
2022/01/12 05:54:49;;;;;;;32.27;19.17;;;6.10;81.90;;;;;;5079422;28;20024;-60
2022/01/12 05:57:15;;;;;;;35.20;20.40;;;6.10;82.00;;;;;;5076465;28;20081;-60
2022/01/12 05:59:40;;;;;;;34.10;20.80;;;6.10;82.00;;;;;;5084467;28;20016;-61
2022/01/12 06:02:06;;;;;;;32.90;19.50;;;6.10;82.10;;;;;;5096008;28;20024;-60
2022/01/12 06:04:33;;;;;;;33.50;20.17;;;6.10;82.10;;;;;;5102473;28;20117;-60
2022/01/12 06:07:01;;;;;;;34.37;19.20;;;6.10;82.10;;;;;;5096863;28;20070;-60
2022/01/12 06:09:27;;;;;;;36.57;19.47;;;6.10;82.20;;;;;;5098092;28;20040;-60
2022/01/12 06:11:53;;;;;;;37.33;21.90;;;6.20;82.20;;;;;;5096582;28;20149;-60
2022/01/12 06:14:21;;;;;;;40.20;21.87;;;6.20;82.20;;;;;;5097277;28;20062;-60
2022/01/12 06:16:47;;;;;;;32.43;18.03;;;6.20;82.20;;;;;;5096523;28;20021;-60
2022/01/12 06:19:15;;;;;;;38.57;21.87;;;6.20;82.20;;;;;;5110394;28;20040;-60
2022/01/12 06:21:51;;;;;;;37.97;20.53;;;6.20;82.20;;;;;;5086300;28;20034;-60
2022/01/12 06:24:25;;;;;;;36.73;20.27;;;6.20;82.30;;;;;;5096572;28;20066;-61
2022/01/12 06:26:50;;;;;;;38.43;20.63;;;6.20;82.30;;;;;;5096906;28;20100;-60
2022/01/12 06:31:49;;;;;;;37.87;20.83;;;6.20;82.40;;;;;;5095681;28;20499;-60
2022/01/12 06:34:14;;;;;;;35.73;20.90;;;6.20;82.50;;;;;;5098039;28;20412;-60
2022/01/12 06:36:40;;;;;;;38.60;21.83;;;6.20;82.40;;;;;;5096364;28;20027;-60
2022/01/12 06:39:09;;;;;;;39.67;21.77;;;6.20;82.50;;;;;;5096342;28;20085;-60
2022/01/12 06:41:37;;;;;;;38.30;20.17;;;6.20;82.50;;;;;;5079520;28;20035;-60
2022/01/12 06:44:04;;;;;;;37.53;20.07;;;6.20;82.60;;;;;;5096200;28;20028;-61
2022/01/12 06:46:31;;;;;;;36.43;19.30;;;6.20;82.70;;;;;;5096333;28;20443;-60
2022/01/12 06:48:57;;;;;;;37.93;20.80;;;6.20;82.70;;;;;;5095657;28;20028;-60
2022/01/12 06:51:24;;;;;;;42.10;21.67;;;6.20;82.70;;;;;;5094928;28;20020;-60
2022/01/12 06:53:52;;;;;;;36.37;19.07;;;6.30;82.70;;;;;;5095038;28;20368;-60
2022/01/12 06:56:18;;;;;;;43.10;21.73;;;6.40;82.70;;;;;;5095937;28;20042;-60
2022/01/12 06:58:50;;;;;;;35.42;19.60;;;6.40;82.70;;;;;;5093797;28;20356;-60
2022/01/12 07:01:16;;;;;;;38.93;20.03;;;6.40;82.60;;;;;;5078506;28;20024;-60
2022/01/12 07:03:46;;;;;;;43.63;21.10;;;6.40;82.70;;;;;;5097054;28;20039;-60
2022/01/12 07:06:12;;;;;;;35.00;19.43;;;6.40;82.60;;;;;;5095651;28;20032;-60
2022/01/12 07:08:39;;;;;;;33.53;18.60;;;6.40;82.70;;;;;;5095003;28;20027;-61
2022/01/12 07:11:08;;;;;;;37.53;19.03;;;6.40;82.70;;;;;;5095838;28;20127;-60
2022/01/12 07:13:34;;;;;;;32.67;17.37;;;6.40;82.70;;;;;;5095945;28;20107;-60
2022/01/12 07:16:00;;;;;;;31.13;17.10;;;6.40;82.70;;;;;;5095452;28;20021;-61
2022/01/12 07:18:28;;;;;;;26.87;14.60;;;6.40;82.70;;;;;;5094682;28;20026;-61
2022/01/12 07:20:54;;;;;;;35.23;17.90;;;6.40;82.70;;;;;;5095657;28;20020;-61
2022/01/12 07:23:19;;;;;;;35.63;17.10;;;6.40;82.70;;;;;;5079004;28;20031;-60
2022/01/12 07:25:45;;;;;;;33.87;16.83;;;6.50;82.70;;;;;;5096970;28;20031;-61
2022/01/12 07:28:11;;;;;;;31.03;16.40;;;6.40;82.60;;;;;;5096105;28;20342;-60
2022/01/12 07:30:36;;;;;;;27.60;14.90;;;6.40;82.60;;;;;;5096633;28;20035;-61
2022/01/12 07:33:02;;;;;;;27.83;15.83;;;6.50;82.70;;;;;;5096346;28;20413;-60
2022/01/12 07:35:27;;;;;;;32.43;16.63;;;6.40;82.60;;;;;;5093768;28;20032;-61
2022/01/12 07:37:53;;;;;;;31.93;15.87;;;6.40;82.60;;;;;;5095973;28;20051;-60
2022/01/12 07:40:19;;;;;;;28.17;16.03;;;6.40;82.60;;;;;;5094717;28;20169;-61
2022/01/12 07:42:45;;;;;;;31.33;16.47;;;6.40;82.50;;;;;;5094438;28;20032;-60
2022/01/12 07:45:13;;;;;;;31.33;15.77;;;6.50;82.60;;;;;;5094936;28;20027;-61
2022/01/12 07:47:39;;;;;;;31.57;15.63;;;6.40;82.50;;;;;;5095622;28;20024;-61
2022/01/12 07:50:08;;;;;;;31.07;15.73;;;6.40;82.40;;;;;;5095521;28;20031;-61
2022/01/12 07:52:34;;;;;;;31.90;15.57;;;6.40;82.40;;;;;;5095530;28;20034;-61
2022/01/12 07:55:00;;;;;;;32.97;15.03;;;6.40;82.30;;;;;;5095233;28;20107;-60
2022/01/12 07:57:28;;;;;;;32.57;15.87;;;6.40;82.30;;;;;;5094961;28;20057;-61
2022/01/12 07:59:53;;;;;;;31.33;15.23;;;6.50;83.00;;;;;;5095197;28;20352;-60
2022/01/12 08:02:19;;;;;;;28.10;14.40;;;6.40;82.30;;;;;;5093310;28;20020;-60
2022/01/12 08:04:45;;;;;;;29.60;15.93;;;6.50;82.30;;;;;;5093729;28;20032;-60
2022/01/12 08:07:11;;;;;;;31.63;15.60;;;6.50;82.20;;;;;;5093653;28;20020;-61
2022/01/12 08:09:38;;;;;;;34.87;16.10;;;6.50;82.20;;;;;;5094236;28;20459;-61
2022/01/12 08:12:04;;;;;;;26.37;15.07;;;6.50;82.20;;;;;;5093229;28;20040;-61
2022/01/12 08:14:29;;;;;;;34.40;16.37;;;6.50;82.10;;;;;;5092278;28;20034;-61
2022/01/12 08:16:55;;;;;;;33.07;16.00;;;6.50;82.10;;;;;;5094546;28;20119;-61
2022/01/12 08:19:22;;;;;;;32.60;16.70;;;6.50;82.00;;;;;;5096653;28;20024;-61
2022/01/12 08:21:48;;;;;;;33.97;15.53;;;6.50;82.00;;;;;;5095988;28;20111;-61
2022/01/12 08:24:14;;;;;;;33.17;15.90;;;6.50;82.00;;;;;;5095938;28;20070;-61
2022/01/12 08:26:40;;;;;;;30.70;15.33;;;6.50;81.90;;;;;;5095498;28;20047;-61
2022/01/12 08:29:10;;;;;;;29.33;14.07;;;6.50;81.80;;;;;;5096362;28;20078;-61
2022/01/12 08:31:36;;;;;;;37.53;15.40;;;6.50;81.80;;;;;;5095491;28;20055;-61
2022/01/12 08:34:02;;;;;;;35.70;17.17;;;6.50;81.80;;;;;;5094520;28;20028;-60
2022/01/12 08:36:27;;;;;;;32.63;15.63;;;6.50;81.70;;;;;;5094651;28;20024;-60
2022/01/12 08:38:55;;;;;;;36.13;16.33;;;6.50;81.70;;;;;;5093745;28;20464;-60
2022/01/12 08:41:21;;;;;;;36.10;16.67;;;6.50;81.70;;;;;;5095277;28;20035;-60
2022/01/12 08:43:46;;;;;;;39.33;16.90;;;6.50;81.60;;;;;;5095113;28;20038;-60
2022/01/12 08:46:12;;;;;;;35.10;17.03;;;6.50;81.60;;;;;;5094646;28;20036;-60
2022/01/12 08:48:37;;;;;;;35.47;17.00;;;6.60;81.60;;;;;;5094339;28;20020;-60
2022/01/12 08:51:03;;;;;;;30.33;15.73;;;6.60;81.60;;;;;;5091242;28;20073;-60
2022/01/12 08:53:29;;;;;;;33.97;15.93;;;6.60;81.50;;;;;;5073663;28;20543;-61
2022/01/12 08:55:55;;;;;;;29.33;14.90;;;6.60;81.50;;;;;;5093829;28;20329;-61
2022/01/12 08:58:21;;;;;;;36.43;15.90;;;6.60;81.40;;;;;;5093273;28;20035;-60
2022/01/12 09:00:46;;;;;;;31.67;15.93;;;6.60;82.00;;;;;;5092933;28;20028;-62
2022/01/12 09:03:12;;;;;;;35.90;17.40;;;6.60;81.30;;;;;;5093229;28;20028;-62
2022/01/12 09:05:38;;;;;;;34.17;17.10;;;6.60;81.30;;;;;;5093142;28;20023;-62
2022/01/12 09:08:05;;;;;;;30.03;15.03;;;6.60;81.20;;;;;;5074730;28;20040;-61
2022/01/12 09:10:31;;;;;;;34.60;16.63;;;6.60;81.20;;;;;;5093217;28;20361;-61
2022/01/12 09:12:57;;;;;;;31.57;13.93;;;6.60;81.20;;;;;;5092232;28;20031;-61
2022/01/12 09:15:25;;;;;;;32.70;16.37;;;6.60;81.10;;;;;;5092752;28;20024;-61
2022/01/12 09:17:52;;;;;;;35.90;17.47;;;6.70;81.10;;;;;;5073799;28;20085;-60
2022/01/12 09:20:18;;;;;;;26.63;13.67;;;6.70;81.00;;;;;;5092931;28;20020;-62
2022/01/12 09:22:44;;;;;;;39.87;17.93;;;6.70;81.00;;;;;;5092929;28;20028;-64
2022/01/12 09:25:10;;;;;;;34.40;17.47;;;6.70;80.90;;;;;;5074739;28;20050;-62
2022/01/12 09:27:39;;;;;;;29.10;14.03;;;6.70;81.00;;;;;;5091050;28;20048;-63
2022/01/12 09:30:08;;;;;;;31.13;15.90;;;6.70;81.60;;;;;;5089963;28;20028;-61
2022/01/12 09:32:34;;;;;;;32.20;16.30;;;6.70;81.00;;;;;;5091948;28;20036;-61
2022/01/12 09:35:00;;;;;;;34.70;15.47;;;6.70;80.90;;;;;;5086422;28;20024;-62
2022/01/12 09:37:27;;;;;;;33.10;16.10;;;6.70;80.80;;;;;;5082597;28;20020;-61
2022/01/12 09:39:53;;;;;;;32.13;15.43;;;6.70;80.70;;;;;;5090679;28;20031;-63
2022/01/12 09:42:19;;;;;;;29.30;15.53;;;6.80;80.70;;;;;;5092079;28;20028;-62
2022/01/12 09:44:47;;;;;;;36.73;16.70;;;6.70;80.70;;;;;;5090483;28;20040;-62
2022/01/12 09:47:13;;;;;;;32.20;16.10;;;6.80;80.80;;;;;;5087148;28;20330;-62
2022/01/12 09:49:42;;;;;;;32.77;16.60;;;6.80;80.70;;;;;;5090700;28;20032;-62
2022/01/12 09:52:09;;;;;;;31.53;16.03;;;6.80;80.60;;;;;;5092229;28;20070;-61
2022/01/12 09:54:36;;;;;;;33.13;15.67;;;6.80;80.50;;;;;;5095639;28;20024;-62
2022/01/12 09:57:04;;;;;;;31.13;15.63;;;6.80;80.50;;;;;;5090955;28;20028;-62
2022/01/12 09:59:30;;;;;;;33.17;15.27;;;6.80;80.40;;;;;;5091957;28;20028;-61
2022/01/12 10:01:56;;;;;;;31.83;15.77;;;6.90;80.40;;;;;;5092274;28;20052;-61
2022/01/12 10:04:25;;;;;;;30.43;15.33;;;6.90;80.30;;;;;;5093813;28;20038;-62
2022/01/12 10:07:03;;;;;;;31.00;15.43;;;6.90;80.30;;;;;;5088554;28;20026;-62
2022/01/12 10:09:33;;;;;;;33.37;16.33;;;6.90;80.20;;;;;;5092099;28;20153;-62
2022/01/12 10:12:04;;;;;;;33.38;15.43;;;6.90;80.20;;;;;;5094300;28;20275;-61
2022/01/12 10:14:45;;;;;;;33.93;15.87;;;6.90;80.10;;;;;;5087150;28;20020;-61
2022/01/12 10:17:12;;;;;;;31.58;14.80;;;7.00;80.10;;;;;;5091005;28;20064;-62
2022/01/12 10:19:38;;;;;;;29.27;14.73;;;7.00;80.20;;;;;;5097574;28;20093;-61
2022/01/12 10:22:07;;;;;;;28.90;13.57;;;7.00;80.10;;;;;;5094799;28;20115;-61
2022/01/12 10:24:38;;;;;;;29.13;14.10;;;7.00;80.10;;;;;;5093256;28;20036;-61
2022/01/12 10:27:11;;;;;;;27.27;14.60;;;7.00;80.00;;;;;;5095712;28;20092;-62
2022/01/12 10:29:37;;;;;;;29.27;14.00;;;7.00;79.90;;;;;;5095422;28;20019;-61
2022/01/12 10:32:04;;;;;;;26.57;13.07;;;7.00;79.70;;;;;;5097795;28;20046;-61
2022/01/12 10:34:37;;;;;;;30.70;14.10;;;7.10;79.60;;;;;;5095792;28;20045;-61
2022/01/12 10:37:07;;;;;;;28.83;14.27;;;7.10;79.40;;;;;;5095552;28;20111;-62
2022/01/12 10:39:32;;;;;;;27.80;13.57;;;7.10;79.30;;;;;;5093721;28;20348;-61
2022/01/12 10:42:08;;;;;;;32.43;14.90;;;7.10;79.20;;;;;;5095508;28;20031;-61
2022/01/12 10:44:38;;;;;;;29.07;13.93;;;7.20;79.30;;;;;;5094874;28;20051;-62
2022/01/12 10:47:08;;;;;;;32.40;15.17;;;7.20;79.30;;;;;;5096370;28;20115;-61
2022/01/12 10:49:36;;;;;;;33.67;15.03;;;7.20;79.30;;;;;;5095536;28;20455;-61
2022/01/12 10:52:05;;;;;;;32.73;15.80;;;7.20;79.20;;;;;;5097224;28;20476;-61
2022/01/12 10:54:42;;;;;;;31.30;14.67;;;7.20;79.20;;;;;;5095970;28;20464;-63
2022/01/12 10:57:19;;;;;;;35.67;16.17;;;7.20;79.20;;;;;;5093853;28;20027;-61
2022/01/12 11:00:20;;;;;;;35.17;15.50;;;7.20;79.30;;;;;;5090743;28;20156;-61
2022/01/12 11:02:59;;;;;;;28.87;13.27;;;7.20;79.30;;;;;;5103287;28;20036;-62
2022/01/12 11:05:30;;;;;;;34.33;16.20;;;7.20;79.20;;;;;;5094656;28;20321;-62
2022/01/12 11:07:56;;;;;;;35.03;16.20;;;7.20;79.20;;;;;;5099181;28;20031;-62
2022/01/12 11:10:23;;;;;;;30.77;14.30;;;7.20;79.40;;;;;;5094887;28;20032;-63
2022/01/12 11:12:50;;;;;;;30.30;15.40;;;7.20;79.40;;;;;;5094727;28;20042;-62
2022/01/12 11:15:18;;;;;;;31.33;14.73;;;7.20;79.40;;;;;;5086137;28;20511;-62
2022/01/12 11:17:46;;;;;;;29.60;14.33;;;7.20;79.40;;;;;;5089489;28;20356;-63
2022/01/12 11:20:28;;;;;;;31.73;15.60;;;7.20;79.40;;;;;;5087936;28;20631;-62
2022/01/12 11:23:06;;;;;;;31.13;14.37;;;7.20;79.40;;;;;;5095644;28;20148;-60
2022/01/12 11:25:35;;;;;;;37.40;15.43;;;7.20;79.30;;;;;;5093785;28;20038;-61
2022/01/12 11:28:15;;;;;;;27.60;13.93;;;7.20;79.30;;;;;;5094422;28;20054;-61
2022/01/12 11:30:45;;;;;;;24.70;12.90;;;7.20;79.30;;;;;;5093342;28;20106;-60
2022/01/12 11:33:13;;;;;;;26.80;13.83;;;7.20;79.40;;;;;;5094125;28;20497;-61
2022/01/12 11:35:43;;;;;;;30.80;14.10;;;7.20;79.30;;;;;;5094026;28;20031;-61
2022/01/12 11:38:29;;;;;;;28.87;13.57;;;7.30;79.40;;;;;;5094632;28;20097;-61
2022/01/12 11:41:26;;;;;;;24.90;13.23;;;7.30;79.30;;;;;;5095528;28;20050;-60
2022/01/12 11:44:03;;;;;;;34.43;14.63;;;7.30;79.20;;;;;;5096309;28;20039;-61
2022/01/12 11:46:52;;;;;;;31.73;14.67;;;7.30;79.00;;;;;;5095415;28;20040;-61
2022/01/12 11:49:25;;;;;;;28.53;13.43;;;7.30;78.90;;;;;;5096494;28;20032;-61
2022/01/12 11:51:51;;;;;;;32.33;14.60;;;7.30;78.80;;;;;;5096686;28;20035;-61
2022/01/12 11:54:19;;;;;;;27.73;13.90;;;7.30;78.70;;;;;;5095691;28;20028;-61
2022/01/12 11:57:05;;;;;;;28.30;13.87;;;7.30;78.60;;;;;;5096675;28;20031;-61
2022/01/12 11:59:53;;;;;;;30.33;13.57;;;7.30;78.50;;;;;;5095416;28;20028;-62
2022/01/12 12:02:20;;;;;;;27.97;13.97;;;7.30;78.50;;;;;;5095612;28;20028;-62
2022/01/12 12:05:00;;;;;;;30.97;15.10;;;7.30;78.40;;;;;;5095791;28;20032;-61
2022/01/12 12:07:27;;;;;;;34.27;14.27;;;7.30;78.40;;;;;;5095054;28;20119;-62
2022/01/12 12:09:57;;;;;;;29.63;14.53;;;7.30;78.40;;;;;;5096054;28;20124;-62
2022/01/12 12:12:31;;;;;;;33.17;13.90;;;7.30;78.30;;;;;;5096317;28;20050;-61
2022/01/12 12:14:59;;;;;;;25.83;14.13;;;7.30;78.30;;;;;;5095251;28;20036;-62
2022/01/12 12:17:27;;;;;;;25.60;12.90;;;7.30;78.40;;;;;;5095613;28;20448;-62
2022/01/12 12:19:54;;;;;;;27.57;13.03;;;7.30;78.40;;;;;;5095061;28;20031;-61
2022/01/12 12:22:22;;;;;;;32.43;14.47;;;7.40;78.30;;;;;;5095548;28;20028;-61
2022/01/12 12:24:58;;;;;;;25.47;12.20;;;7.50;78.30;;;;;;5094887;28;20424;-61
2022/01/12 12:27:26;;;;;;;24.43;12.10;;;7.50;78.20;;;;;;5095626;28;20059;-61
2022/01/12 12:29:52;;;;;;;31.17;12.87;;;7.60;78.10;;;;;;5095466;28;20418;-62
2022/01/12 12:32:31;;;;;;;29.67;13.33;;;7.60;77.90;;;;;;5095846;28;20054;-62
2022/01/12 12:35:05;;;;;;;30.40;14.77;;;7.60;77.90;;;;;;5095157;28;20020;-62
2022/01/12 12:37:43;;;;;;;31.20;13.93;;;7.60;77.80;;;;;;5096012;28;20031;-62
2022/01/12 12:40:14;;;;;;;27.77;12.40;;;7.60;77.70;;;;;;5094668;28;20024;-62
2022/01/12 12:42:40;;;;;;;27.10;13.38;;;7.60;77.70;;;;;;5095161;28;20028;-62
2022/01/12 12:45:08;;;;;;;27.67;12.80;;;7.70;77.70;;;;;;5094098;28;20035;-62
2022/01/12 12:47:34;;;;;;;28.07;13.97;;;7.70;77.60;;;;;;5095203;28;20101;-62
2022/01/12 12:50:03;;;;;;;30.10;13.07;;;7.70;77.60;;;;;;5094774;28;20032;-61
2022/01/12 12:52:31;;;;;;;25.57;12.53;;;7.60;77.50;;;;;;5095223;28;20043;-62
2022/01/12 12:55:00;;;;;;;33.10;14.97;;;7.60;77.40;;;;;;5094545;28;20522;-62
2022/01/12 12:57:27;;;;;;;27.43;13.87;;;7.60;77.40;;;;;;5094575;28;20028;-62
2022/01/12 13:00:16;;;;;;;25.83;14.13;;;7.60;77.40;;;;;;5094002;28;20032;-62
2022/01/12 13:02:45;;;;;;;26.97;13.53;;;7.60;77.30;;;;;;5093152;28;20055;-62
2022/01/12 13:05:14;;;;;;;31.37;15.77;;;7.60;77.40;;;;;;5092488;28;20114;-63
2022/01/12 13:07:43;;;;;;;28.20;13.53;;;7.60;77.30;;;;;;5092173;28;20123;-62
2022/01/12 13:10:14;;;;;;;30.40;14.17;;;7.70;77.30;;;;;;5092310;28;20070;-62
2022/01/12 13:12:45;;;;;;;27.38;13.38;;;7.70;77.20;;;;;;5091751;28;20036;-63
2022/01/12 13:15:32;;;;;;;28.05;12.95;;;7.70;77.20;;;;;;5090328;28;20032;-62
2022/01/12 13:18:21;;;;;;;28.30;13.47;;;7.80;77.20;;;;;;5090602;28;20441;-62
2022/01/12 13:21:07;;;;;;;29.73;13.63;;;7.80;77.10;;;;;;5092379;28;20205;-62
2022/01/12 13:23:40;;;;;;;30.23;15.70;;;7.80;77.00;;;;;;5091899;28;20023;-62
2022/01/12 13:26:09;;;;;;;33.33;14.17;;;7.80;77.00;;;;;;5092780;28;20020;-62
2022/01/12 13:28:37;;;;;;;29.47;13.10;;;7.70;77.00;;;;;;5090905;28;20134;-62
2022/01/12 13:31:05;;;;;;;33.27;15.47;;;7.70;77.00;;;;;;5091920;28;20028;-61
2022/01/12 13:33:46;;;;;;;33.77;14.93;;;7.70;77.00;;;;;;5092363;28;20032;-62
2022/01/12 13:36:17;;;;;;;30.63;13.53;;;7.80;77.00;;;;;;5093651;28;20067;-62
2022/01/12 13:38:46;;;;;;;27.55;12.93;;;7.70;77.00;;;;;;5091716;28;20028;-61
2022/01/12 13:41:15;;;;;;;27.67;12.93;;;7.70;77.00;;;;;;5083706;28;20036;-62
2022/01/12 13:43:44;;;;;;;24.40;12.10;;;7.70;76.90;;;;;;5092781;28;20779;-61
2022/01/12 13:46:13;;;;;;;31.37;15.13;;;7.70;76.90;;;;;;5090290;28;20036;-61
2022/01/12 13:48:52;;;;;;;28.30;14.80;;;7.70;76.90;;;;;;5091919;28;20031;-62
2022/01/12 13:51:26;;;;;;;31.67;13.83;;;7.70;76.90;;;;;;5089901;28;20476;-62
2022/01/12 13:54:03;;;;;;;25.53;13.33;;;7.70;76.90;;;;;;5089419;28;20038;-62
2022/01/12 13:56:38;;;;;;;30.63;15.27;;;7.70;76.90;;;;;;5083089;28;20032;-62